tititudorancea.com
Station Historical Data
Daily Summary for January 22, 2018 Units:  Metric    English   Both
« Previous Day
Next Day »
Daily Weekly Monthly Yearly Custom
  High: Low: Average:
Temperature: -17.8 °C 14.1 °C 20.8 °C
Dew Point: -17.8 °C 9.8 °C 13.2 °C
Humidity: Humidity % 31 % 67 %
Wind Speed: 0 km/h 0 km/h 10.1 km/h
Wind Gust: 0 km/h - -
Wind:- - SW
Pressure: 0 hPa 1004.3 hPa -
Precipitation: 0 mm    
Historical Graphs
 
 
Ararat weather Find more about Weather in Ararat, AU


 



 


Tabular Data for January 22, 2018
Time Temperature Dew Point Pressure Wind Wind Speed Wind Gust Humidity Rainfall Rate (Hourly)
-17.8 °C -17.8 °C 0 hPa Calm     Humidity % 0 mm
00:00 19.8 °C 16.1 °C 1006 hPa North 7.2 km/h 11.1 km/h 79 % 0 mm
00:05 19.7 °C 16.1 °C 1006 hPa South 4 km/h 11.1 km/h 80 % 0 mm
00:10 19.6 °C 16 °C 1006 hPa South 7.7 km/h 13 km/h 80 % 0 mm
00:15 19.4 °C 16.1 °C 1006 hPa South 6.6 km/h 9.3 km/h 81 % 0 mm
00:20 19.4 °C 16.1 °C 1006 hPa North 7.1 km/h 7.4 km/h 81 % 0 mm
00:25 19.3 °C 16 °C 1006 hPa South 4.7 km/h 11.1 km/h 81 % 0 mm
00:30 19.3 °C 15.9 °C 1006 hPa South 6.3 km/h 11.1 km/h 81 % 0 mm
00:35 19.2 °C 15.9 °C 1006 hPa South 5.6 km/h 11.1 km/h 81 % 0 mm
00:40 19.1 °C 15.9 °C 1006 hPa South 7.7 km/h 11.1 km/h 82 % 0 mm
00:45 19 °C 15.8 °C 1006 hPa South 5 km/h 9.3 km/h 82 % 0 mm
00:50 18.9 °C 15.8 °C 1006 hPa South 7.1 km/h 11.1 km/h 82 % 0 mm
00:55 18.9 °C 15.7 °C 1005.6 hPa South 3.5 km/h 3.7 km/h 82 % 0 mm
01:00 18.8 °C 15.9 °C 1005.6 hPa South 9 km/h 11.1 km/h 83 % 0 mm
01:05 18.8 °C 15.8 °C 1005.6 hPa South 5.6 km/h 11.1 km/h 83 % 0 mm
01:10 18.7 °C 15.8 °C 1005.6 hPa South 9.3 km/h 11.1 km/h 83 % 0 mm
01:15 18.7 °C 15.7 °C 1005.6 hPa South 6.1 km/h 9.3 km/h 83 % 0 mm
01:20 18.6 °C 15.6 °C 1005.6 hPa South 8.5 km/h 13 km/h 83 % 0 mm
01:25 18.4 °C 15.6 °C 1005.6 hPa North 8.4 km/h 14.8 km/h 84 % 0 mm
01:30 18.2 °C 15.5 °C 1005.6 hPa South 5.1 km/h 11.1 km/h 84 % 0 mm
01:44 17.9 °C 15.3 °C 1005.3 hPa North 7.6 km/h 14.8 km/h 85 % 0 mm
01:49 17.8 °C 15.4 °C 1005.3 hPa SSW 8 km/h 11.1 km/h 86 % 0 mm
01:54 17.7 °C 15.3 °C 1005.3 hPa SSW 6.9 km/h 9.3 km/h 86 % 0 mm
01:59 17.6 °C 15.2 °C 1005.3 hPa SSW 7.9 km/h 11.1 km/h 86 % 0 mm
02:04 17.5 °C 15.3 °C 1005.3 hPa South 4.3 km/h 5.6 km/h 87 % 0 mm
02:09 17.4 °C 15.3 °C 1005 hPa SSW 5.5 km/h 7.4 km/h 87 % 0 mm
02:14 17.4 °C 15.2 °C 1005 hPa North 3.9 km/h 5.6 km/h 87 % 0 mm
02:19 17.3 °C 15.2 °C 1005 hPa South 4.5 km/h 9.7 km/h 87 % 0 mm
02:24 17.3 °C 15.3 °C 1005 hPa South 5.8 km/h 8 km/h 88 % 0 mm
02:29 17.2 °C 15.2 °C 1004.6 hPa SSW 2.3 km/h 5.6 km/h 88 % 0 mm
02:34 17.2 °C 15.2 °C 1004.6 hPa North 5.3 km/h 7.4 km/h 88 % 0 mm
02:39 17.1 °C 15.1 °C 1004.6 hPa North 4 km/h 6.4 km/h 88 % 0 mm
02:44 17.1 °C 15.2 °C 1004.6 hPa South 4.3 km/h 5.6 km/h 89 % 0 mm
02:49 17 °C 15.2 °C 1004.6 hPa South 3.5 km/h 5.6 km/h 89 % 0 mm
02:54 17 °C 15.2 °C 1004.6 hPa North 7.1 km/h 9.3 km/h 89 % 0 mm
02:59 16.9 °C 15.3 °C 1004.6 hPa SSW 4 km/h 6.4 km/h 90 % 0 mm
03:04 16.9 °C 15.3 °C 1004.6 hPa South 2.9 km/h 5.6 km/h 90 % 0 mm
03:09 16.9 °C 15.2 °C 1004.6 hPa SSW 4.2 km/h 5.6 km/h 90 % 0 mm
03:14 16.9 °C 15.2 °C 1004.6 hPa South 6 km/h 9.3 km/h 90 % 0 mm
03:19 16.8 °C 15.1 °C 1004.3 hPa South 5.6 km/h 8 km/h 90 % 0 mm
03:24 16.8 °C 15.1 °C 1004.3 hPa SSW 3.9 km/h 8 km/h 90 % 0 mm
03:29 16.7 °C 15.1 °C 1004.6 hPa SSW 6.6 km/h 7.4 km/h 90 % 0 mm
03:34 16.7 °C 15 °C 1004.3 hPa SSW 3.7 km/h 5.6 km/h 90 % 0 mm
03:39 16.6 °C 14.9 °C 1004.3 hPa North 7.6 km/h 9.3 km/h 90 % 0 mm
03:44 16.5 °C 15 °C 1004.3 hPa SSW 4.3 km/h 9.3 km/h 91 % 0 mm
03:49 16.4 °C 14.9 °C 1004.3 hPa SSW 6.1 km/h 9.3 km/h 91 % 0 mm
03:54 16.3 °C 14.8 °C 1004.3 hPa SSW 7.7 km/h 11.3 km/h 91 % 0 mm
03:59 16.2 °C 14.8 °C 1004.3 hPa South 2.6 km/h 5.6 km/h 91 % 0 mm
04:04 16.1 °C 14.6 °C 1004.3 hPa SSW 3.7 km/h 6.4 km/h 91 % 0 mm
04:09 15.9 °C 14.4 °C 1004.6 hPa South 3.2 km/h 5.6 km/h 91 % 0 mm
04:14 15.8 °C 14.3 °C 1004.6 hPa South 2.4 km/h 5.6 km/h 91 % 0 mm
04:19 15.7 °C 14.4 °C 1004.6 hPa SSW 4.2 km/h 5.6 km/h 92 % 0 mm
04:24 15.7 °C 14.4 °C 1004.6 hPa SSW 4.8 km/h 6.4 km/h 92 % 0 mm
04:29 15.6 °C 14.3 °C 1004.6 hPa SSW 3.5 km/h 5.6 km/h 92 % 0 mm
04:34 15.5 °C 14.2 °C 1004.6 hPa SSW 1.6 km/h 3.7 km/h 92 % 0 mm
04:39 15.4 °C 14.3 °C 1004.6 hPa North 3.9 km/h 5.6 km/h 93 % 0 mm
04:44 15.4 °C 14.3 °C 1004.6 hPa South 3.4 km/h 5.6 km/h 93 % 0 mm
04:49 15.4 °C 14.3 °C 1004.6 hPa SSW 0.6 km/h 3.7 km/h 93 % 0 mm
04:54 15.4 °C 14.3 °C 1004.6 hPa South 2.9 km/h 3.7 km/h 93 % 0 mm
04:59 15.4 °C 14.3 °C 1004.6 hPa North 1.4 km/h 3.7 km/h 93 % 0 mm
05:04 15.4 °C 14.3 °C 1004.6 hPa South 4.2 km/h 5.6 km/h 93 % 0 mm
05:09 15.4 °C 14.3 °C 1005 hPa South 6.9 km/h 9.3 km/h 93 % 0 mm
05:14 15.4 °C 14.5 °C 1005 hPa South 2.1 km/h 4.8 km/h 94 % 0 mm
05:19 15.4 °C 14.4 °C 1004.6 hPa South 2.4 km/h 5.6 km/h 94 % 0 mm
05:24 15.4 °C 14.4 °C 1004.6 hPa North 2.1 km/h 4.8 km/h 94 % 0 mm
05:29 15.4 °C 14.4 °C 1005 hPa South 0.6 km/h 1.9 km/h 94 % 0 mm
05:34 15.4 °C 14.4 °C 1004.6 hPa North 2.7 km/h 5.6 km/h 94 % 0 mm
05:39 15.4 °C 14.5 °C 1005 hPa Calm     94 % 0 mm
05:44 15.4 °C 14.5 °C 1005 hPa North 2.1 km/h 3.7 km/h 94 % 0 mm
05:49 15.4 °C 14.4 °C 1005 hPa South 3.9 km/h 5.6 km/h 94 % 0 mm
05:54 15.3 °C 14.4 °C 1005 hPa North 1.9 km/h 3.7 km/h 94 % 0 mm
05:59 15.3 °C 14.3 °C 1005 hPa North 1.1 km/h 5.6 km/h 94 % 0 mm
06:04 15.3 °C 14.3 °C 1005.3 hPa North 1.1 km/h 1.9 km/h 94 % 0 mm
06:09 15.3 °C 14.3 °C 1005.3 hPa SSW 1 km/h 5.6 km/h 94 % 0 mm
06:14 15.3 °C 14.3 °C 1005.3 hPa North 0.3 km/h 1.9 km/h 94 % 0 mm
06:19 15.3 °C 14.3 °C 1005.3 hPa SSW 0.3 km/h   94 % 0 mm
06:24 15.3 °C 14.5 °C 1005.6 hPa SSW 2.7 km/h 3.7 km/h 95 % 0 mm
06:29 15.2 °C 14.4 °C 1005.6 hPa South 2.4 km/h 3.7 km/h 95 % 0 mm
06:34 15.2 °C 14.4 °C 1005.6 hPa North 3.1 km/h 3.7 km/h 95 % 0 mm
06:39 15.2 °C 14.4 °C 1005.6 hPa SSE 5.3 km/h 7.4 km/h 95 % 0 mm
06:44 15.2 °C 14.4 °C 1005.6 hPa SSE 7.6 km/h 9.7 km/h 95 % 0 mm
06:49 15.3 °C 14.6 °C 1006 hPa North 8.9 km/h 14.8 km/h 95 % 0 mm
06:54 15.4 °C 14.6 °C 1006 hPa North 10.1 km/h 14.8 km/h 95 % 0 mm
06:59 15.4 °C 14.7 °C 1006 hPa North 7.1 km/h 9.3 km/h 95 % 0 mm
07:09 15.4 °C 14.7 °C 1006 hPa South 6.6 km/h 16.7 km/h 95 % 0 mm
07:14 15.4 °C 14.8 °C 1006.3 hPa North 6.3 km/h 9.3 km/h 96 % 0 mm
07:19 15.3 °C 14.6 °C 1006.3 hPa South 12.2 km/h 18.5 km/h 95 % 0 mm
07:24 15.3 °C 14.5 °C 1006.3 hPa South 10.1 km/h 13 km/h 95 % 0 mm
07:34 15.4 °C 14.8 °C 1006.7 hPa North 7.2 km/h 11.1 km/h 96 % 0 mm
07:39 15.4 °C 14.8 °C 1006.7 hPa North 6.9 km/h 18.5 km/h 96 % 0 mm
07:44 15.4 °C 14.8 °C 1006.7 hPa North 8 km/h 13 km/h 96 % 0 mm
07:49 15.4 °C 14.8 °C 1006.7 hPa South 7.6 km/h 11.1 km/h 96 % 0 mm
07:54 15.3 °C 14.7 °C 1006.7 hPa South 6.9 km/h 9.3 km/h 96 % 0 mm
07:59 15.3 °C 14.7 °C 1006.7 hPa North 5.3 km/h 8 km/h 96 % 0 mm
08:04 15.5 °C 14.9 °C 1006.7 hPa North 4 km/h 7.4 km/h 96 % 0 mm
08:09 15.6 °C 15 °C 1007 hPa North 8.7 km/h 14.8 km/h 96 % 0 mm
08:14 15.6 °C 15 °C 1006.7 hPa North 7.1 km/h 9.3 km/h 96 % 0 mm
08:19 15.6 °C 14.9 °C 1006.7 hPa South 6.8 km/h 14.8 km/h 96 % 0 mm
08:24 15.6 °C 15 °C 1007 hPa North 6.4 km/h 8 km/h 96 % 0 mm
08:29 15.6 °C 15 °C 1006.7 hPa North 7.4 km/h 13 km/h 96 % 0 mm
08:34 15.7 °C 15.1 °C 1006.7 hPa North 9.2 km/h 14.8 km/h 96 % 0 mm
08:39 15.6 °C 15 °C 1006.7 hPa South 5.6 km/h 13 km/h 96 % 0 mm
08:44 15.7 °C 15.1 °C 1006.7 hPa North 16.7 km/h 16.7 km/h 96 % 0 mm
08:49 15.8 °C 15.2 °C 1006.7 hPa South 6.3 km/h 9.7 km/h 96 % 0 mm
08:54 15.9 °C 15.3 °C 1006.7 hPa South 7.4 km/h 9.3 km/h 96 % 0 mm
08:59 15.9 °C 15.3 °C 1006.7 hPa South 5.6 km/h 5.6 km/h 96 % 0 mm
09:09 15.9 °C 15.3 °C 1007 hPa South 5.1 km/h 16.7 km/h 96 % 0 mm
09:14 15.9 °C 15.3 °C 1007 hPa South 5.8 km/h 13 km/h 96 % 0 mm
09:19 16.1 °C 15.4 °C 1007 hPa South 6.9 km/h 14.8 km/h 96 % 0 mm
09:24 16.3 °C 15.7 °C 1007 hPa North 7.9 km/h 16.7 km/h 96 % 0 mm
09:29 16.5 °C 15.8 °C 1007 hPa North 7.4 km/h 9.3 km/h 96 % 0 mm
09:34 16.6 °C 15.8 °C 1007 hPa South 8.9 km/h 11.3 km/h 95 % 0 mm
09:39 16.9 °C 16.1 °C 1007 hPa South 11.7 km/h 16.7 km/h 95 % 0 mm
09:49 17.6 °C 16.2 °C 1007 hPa SSW 8.9 km/h 13 km/h 92 % 0 mm
09:54 17.8 °C 16.1 °C 1007 hPa South 9.5 km/h 16.7 km/h 90 % 0 mm
09:59 18.2 °C 16.2 °C 1007 hPa South 10.3 km/h 14.8 km/h 88 % 0 mm
10:14 19.5 °C 16.2 °C 1007 hPa SSE 10.3 km/h 16.7 km/h 81 % 0 mm
10:24 20.1 °C 15.7 °C 1007 hPa SSE 14 km/h 20.4 km/h 76 % 0 mm
10:29 20.4 °C 15.6 °C 1007 hPa SSW 10.5 km/h 16.7 km/h 74 % 0 mm
10:34 20.9 °C 15.9 °C 1007 hPa South 6.4 km/h 11.1 km/h 73 % 0 mm
10:39 21.3 °C 15.3 °C 1006.7 hPa South 10.3 km/h 16.7 km/h 69 % 0 mm
10:44 21.7 °C 16 °C 1006.7 hPa SSW 9.2 km/h 16.1 km/h 70 % 0 mm
10:49 21.8 °C 15.4 °C 1006.7 hPa South 13 km/h 17.7 km/h 67 % 0 mm
10:54 21.8 °C 15.2 °C 1006.7 hPa SSW 8.9 km/h 14.8 km/h 66 % 0 mm
10:59 22.2 °C 14.6 °C 1006.7 hPa South 9.8 km/h 16.7 km/h 62 % 0 mm
11:04 22.7 °C 14.5 °C 1006.7 hPa South 7.6 km/h 13 km/h 60 % 0 mm
11:09 23.2 °C 14.4 °C 1006.7 hPa SSE 8.5 km/h 13 km/h 58 % 0 mm
11:14 23.7 °C 14.9 °C 1006.7 hPa South 5.1 km/h 9.3 km/h 58 % 0 mm
11:19 24 °C 14.1 °C 1006.3 hPa SSW 13.7 km/h 16.7 km/h 54 % 0 mm
11:24 24.3 °C 14.7 °C 1006.3 hPa South 12.6 km/h 17.7 km/h 55 % 0 mm
11:29 24.9 °C 13.1 °C 1006.3 hPa SSW 13.5 km/h 16.7 km/h 48 % 0 mm
11:34 25 °C 14.4 °C 1006.3 hPa South 11.6 km/h 16.7 km/h 52 % 0 mm
11:39 25.4 °C 12.9 °C 1006.3 hPa SSW 16.6 km/h 24.1 km/h 46 % 0 mm
11:44 25.4 °C 12.7 °C 1006.3 hPa SSW 10.9 km/h 18.5 km/h 45 % 0 mm
11:49 25.9 °C 12.1 °C 1006.3 hPa South 15.8 km/h 20.4 km/h 42 % 0 mm
11:54 26.3 °C 12 °C 1006.3 hPa SSE 15.8 km/h 22.2 km/h 41 % 0 mm
11:59 26.6 °C 12.2 °C 1006.3 hPa South 18.3 km/h 24.1 km/h 41 % 0 mm
12:04 26.8 °C 12.4 °C 1006.3 hPa South 7.4 km/h 18.5 km/h 41 % 0 mm
12:09 27.1 °C 11.9 °C 1006.3 hPa SSW 15.9 km/h 24.1 km/h 39 % 0 mm
12:14 27.1 °C 12.7 °C 1006.3 hPa SSW 14.8 km/h 18.5 km/h 41 % 0 mm
12:19 27.2 °C 12.1 °C 1006.3 hPa SW 17.7 km/h 27.8 km/h 39 % 0 mm
12:24 27.3 °C 12.1 °C 1006.3 hPa South 15.3 km/h 20.4 km/h 39 % 0 mm
12:29 27.6 °C 11.9 °C 1006.3 hPa SSW 9 km/h 18.5 km/h 38 % 0 mm
12:34 27.6 °C 11.6 °C 1006.3 hPa SSW 15.4 km/h 18.5 km/h 37 % 0 mm
12:39 27.7 °C 11.7 °C 1006 hPa SSW 10.8 km/h 24.1 km/h 37 % 0 mm
12:44 27.9 °C 11.4 °C 1006 hPa SSW 15.1 km/h 24.1 km/h 36 % 0 mm
12:49 27.7 °C 11.7 °C 1006 hPa North 14.3 km/h 18.5 km/h 37 % 0 mm
12:54 27.9 °C 11.9 °C 1006 hPa SSW 13.5 km/h 22.5 km/h 37 % 0 mm
12:59 28.2 °C 11.7 °C 1006 hPa South 14.5 km/h 18.5 km/h 36 % 0 mm
13:04 28.2 °C 11.7 °C 1006 hPa SW 9.2 km/h 16.7 km/h 36 % 0 mm
13:09 28.5 °C 12 °C 1006 hPa SSW 12.2 km/h 22.2 km/h 36 % 0 mm
13:14 28.8 °C 12.2 °C 1005.6 hPa South 10 km/h 25.9 km/h 36 % 0 mm
13:19 28.6 °C 11.7 °C 1005.6 hPa North 15.1 km/h 18.5 km/h 35 % 0 mm
13:24 28.6 °C 11.6 °C 1005.6 hPa North 11.3 km/h 16.1 km/h 35 % 0 mm
13:29 28.6 °C 11.2 °C 1006 hPa SSW 19 km/h 24.1 km/h 34 % 0 mm
13:34 28.6 °C 10.7 °C 1005.6 hPa SW 15.6 km/h 22.5 km/h 33 % 0 mm
13:39 28.6 °C 11.2 °C 1005.6 hPa SW 18.8 km/h 25.9 km/h 34 % 0 mm
13:44 28.4 °C 10.6 °C 1005.6 hPa SW 17.9 km/h 27.8 km/h 33 % 0 mm
13:54 28.9 °C 11 °C 1005.6 hPa SSW 16.7 km/h 24.1 km/h 33 % 0 mm
13:59 29.2 °C 11.3 °C 1005.6 hPa SE 11.7 km/h 20.4 km/h 33 % 0 mm
14:09 29.4 °C 11.4 °C 1005.6 hPa South 13.8 km/h 18.5 km/h 33 % 0 mm
14:14 29.6 °C 11.6 °C 1005.6 hPa South 18.7 km/h 24.1 km/h 33 % 0 mm
14:19 29.7 °C 12.2 °C 1005.3 hPa SSW 14.2 km/h 19.3 km/h 34 % 0 mm
14:29 29.6 °C 11.6 °C 1005.6 hPa SSW 15 km/h 24.1 km/h 33 % 0 mm
14:34 29.4 °C 11.5 °C 1005.3 hPa SSW 9.5 km/h 14.8 km/h 33 % 0 mm
14:39 29.6 °C 11.6 °C 1005.3 hPa SSW 20.1 km/h 25.9 km/h 33 % 0 mm
14:44 29.7 °C 11.7 °C 1005.3 hPa SE 12.6 km/h 20.4 km/h 33 % 0 mm
14:49 29.9 °C 11 °C 1005.3 hPa SW 15 km/h 20.4 km/h 31 % 0 mm
14:54 29.9 °C 11 °C 1005.3 hPa SW 13.5 km/h 18.5 km/h 31 % 0 mm
15:04 29.8 °C 11.8 °C 1005.3 hPa SSW 15.3 km/h 19.3 km/h 33 % 0 mm
15:14 29.7 °C 11.7 °C 1005.3 hPa SSE 14.2 km/h 20.4 km/h 33 % 0 mm
15:19 29.7 °C 11.7 °C 1005.3 hPa South 17.4 km/h 29.6 km/h 33 % 0 mm
15:24 29.9 °C 11.9 °C 1005.3 hPa SSW 20.6 km/h 25.9 km/h 33 % 0 mm
15:29 30.1 °C 11.6 °C 1005.3 hPa South 18.3 km/h 25.9 km/h 32 % 0 mm
15:34 30.1 °C 11.6 °C 1005.3 hPa South 16.6 km/h 22.5 km/h 32 % 0 mm
15:39 29.8 °C 11.3 °C 1005.3 hPa SSW 14.3 km/h 17.7 km/h 32 % 0 mm
15:44 29.9 °C 11 °C 1005.3 hPa WSW 15.3 km/h 25.9 km/h 31 % 0 mm
15:49 30.1 °C 12 °C 1005.3 hPa SSE 10.8 km/h 19.3 km/h 33 % 0 mm
15:54 30.2 °C 12.1 °C 1005.3 hPa SSE 14 km/h 16.1 km/h 33 % 0 mm
15:59 30.2 °C 12.2 °C 1005.3 hPa North 15.4 km/h 25.7 km/h 33 % 0 mm
16:04 30.2 °C 12.1 °C 1005.3 hPa SSW 15.1 km/h 19.3 km/h 33 % 0 mm
16:09 29.7 °C 12.2 °C 1005.3 hPa South 13.5 km/h 22.2 km/h 34 % 0 mm
16:14 29.9 °C 12.3 °C 1005 hPa SSE 12.1 km/h 18.5 km/h 34 % 0 mm
16:19 29.8 °C 11.8 °C 1005 hPa South 8 km/h 22.2 km/h 33 % 0 mm
16:24 29.9 °C 12.3 °C 1005 hPa SW 9.8 km/h 22.2 km/h 34 % 0 mm
16:29 30 °C 11.9 °C 1005 hPa SSE 11.4 km/h 22.2 km/h 33 % 0 mm
16:34 29.8 °C 11.8 °C 1005 hPa SSE 23.3 km/h 25.9 km/h 33 % 0 mm
16:39 29.4 °C 12.4 °C 1005 hPa South 13.7 km/h 31.5 km/h 35 % 0 mm
16:49 29.6 °C 12.5 °C 1005 hPa South 15.4 km/h 22.5 km/h 35 % 0 mm
17:00 29.2 °C 12.2 °C 1005 hPa South 20.1 km/h 31.5 km/h 35 % 0 mm
17:10 28.9 °C 12.4 °C 1005 hPa South 17.5 km/h 27.8 km/h 36 % 0 mm
17:15 28.8 °C 12.3 °C 1005 hPa South 13.2 km/h 22.2 km/h 36 % 0 mm
17:20 28.6 °C 12.1 °C 1005 hPa South 12.9 km/h 27.8 km/h 36 % 0 mm
17:25 28.6 °C 12.5 °C 1005 hPa South 13.4 km/h 14.8 km/h 37 % 0 mm
17:40 27.9 °C 12.3 °C 1005 hPa South 12.4 km/h 16.7 km/h 38 % 0 mm
17:45 28 °C 11.9 °C 1005.3 hPa South 14 km/h 24.1 km/h 37 % 0 mm
17:50 27.8 °C 12.2 °C 1005.3 hPa SSE 10.5 km/h 18.5 km/h 38 % 0 mm
17:55 27.4 °C 12.3 °C 1005.3 hPa SSW 20.3 km/h 25.9 km/h 39 % 0 mm
18:00 27.4 °C 12.3 °C 1005.3 hPa SW 14.8 km/h 25.9 km/h 39 % 0 mm
18:05 27.2 °C 12 °C 1005.3 hPa SSE 16.3 km/h 20.4 km/h 39 % 0 mm
18:20 26.6 °C 12.3 °C 1005.6 hPa South 15.6 km/h 20.4 km/h 41 % 0 mm
18:25 26.5 °C 12.6 °C 1005.6 hPa South 15.4 km/h 24.1 km/h 42 % 0 mm
18:30 26.2 °C 12.3 °C 1005.6 hPa SSW 26.2 km/h 26.2 km/h 42 % 0 mm
18:35 25.9 °C 12.3 °C 1005.6 hPa South 19.5 km/h 35.2 km/h 43 % 0 mm
18:40 26.1 °C 12.2 °C 1005.6 hPa SSW 19.8 km/h 31.5 km/h 42 % 0 mm
18:45 25.9 °C 12.3 °C 1005.6 hPa SW 15.8 km/h 29.6 km/h 43 % 0 mm
18:50 25.6 °C 12.1 °C 1005.6 hPa South 20.8 km/h 22.5 km/h 43 % 0 mm
18:55 25.5 °C 12.3 °C 1005.6 hPa SSE 14 km/h 20.4 km/h 44 % 0 mm
19:00 25.3 °C 12.2 °C 1006 hPa SSW 15.6 km/h 27.8 km/h 44 % 0 mm
19:05 25.2 °C 12.1 °C 1006 hPa SSW 16.7 km/h 16.7 km/h 44 % 0 mm
19:15 24.8 °C 12.1 °C 1006.3 hPa South 10.9 km/h 16.7 km/h 45 % 0 mm
19:20 24.8 °C 12.1 °C 1006.3 hPa SSW 17.1 km/h 24.1 km/h 45 % 0 mm
19:30 24.4 °C 12 °C 1006.7 hPa South 16.7 km/h 27.8 km/h 46 % 0 mm
19:35 24.2 °C 11.9 °C 1006.7 hPa SSE 8 km/h 18.5 km/h 46 % 0 mm
19:40 24 °C 11.7 °C 1006.7 hPa South 10.9 km/h 16.7 km/h 46 % 0 mm
19:45 23.9 °C 11.9 °C 1006.7 hPa SSE 17.1 km/h 20.4 km/h 47 % 0 mm
20:00 23.1 °C 11.5 °C 1007 hPa South 15 km/h 24.1 km/h 48 % 0 mm
20:10 22.7 °C 11.4 °C 1007 hPa South 18.3 km/h 22.2 km/h 49 % 0 mm
20:15 22.4 °C 11.4 °C 1007.3 hPa South 13 km/h 22.2 km/h 50 % 0 mm
20:20 22.1 °C 11.4 °C 1007.3 hPa South 16.4 km/h 25.9 km/h 51 % 0 mm
20:25 21.8 °C 11.2 °C 1007.3 hPa SSW 15.9 km/h 24.1 km/h 51 % 0 mm
20:30 21.6 °C 11.3 °C 1007.3 hPa South 9.7 km/h 17.7 km/h 52 % 0 mm
20:35 21.2 °C 10.9 °C 1007.7 hPa South 14 km/h 25.9 km/h 52 % 0 mm
20:40 20.8 °C 10.9 °C 1007.7 hPa SSW 13 km/h 31.5 km/h 53 % 0 mm
20:45 20.6 °C 10.9 °C 1007.7 hPa South 15.6 km/h 24.1 km/h 54 % 0 mm
20:50 20.3 °C 10.9 °C 1007.7 hPa SSW 18.7 km/h 27.8 km/h 55 % 0 mm
20:55 20.1 °C 10.7 °C 1008 hPa SSE 14 km/h 22.2 km/h 55 % 0 mm
21:00 19.8 °C 10.8 °C 1008 hPa SSW 11.9 km/h 22.2 km/h 56 % 0 mm
21:05 19.6 °C 10.6 °C 1008 hPa South 12.4 km/h 16.7 km/h 56 % 0 mm
21:10 19.3 °C 10.6 °C 1008.4 hPa SSW 9 km/h 16.1 km/h 57 % 0 mm
21:15 19.1 °C 10.7 °C 1008.4 hPa SSW 10.8 km/h 20.4 km/h 58 % 0 mm
21:20 18.8 °C 10.4 °C 1008.4 hPa SSW 11.9 km/h 16.7 km/h 58 % 0 mm
21:25 18.6 °C 10.4 °C 1008.7 hPa South 15 km/h 18.5 km/h 59 % 0 mm
21:30 18.3 °C 10.4 °C 1008.7 hPa South 15.8 km/h 24.1 km/h 60 % 0 mm
21:40 17.7 °C 10.6 °C 1008.7 hPa South 12.7 km/h 18.5 km/h 63 % 0 mm
21:45 17.4 °C 10.3 °C 1009 hPa South 12.6 km/h 25.9 km/h 63 % 0 mm
21:50 17.3 °C 10.4 °C 1008.7 hPa SSW 13.5 km/h 20.4 km/h 64 % 0 mm
22:00 16.9 °C 10.3 °C 1009 hPa South 12.4 km/h 24.1 km/h 65 % 0 mm
22:05 16.7 °C 10.3 °C 1009 hPa South 17.2 km/h 25.9 km/h 66 % 0 mm
22:10 16.6 °C 10.2 °C 1009 hPa South 11.6 km/h 18.5 km/h 66 % 0 mm
22:20 16.3 °C 10.3 °C 1009.4 hPa South 16.1 km/h 25.9 km/h 68 % 0 mm
22:30 16 °C 10.3 °C 1009.4 hPa South 10.5 km/h 16.7 km/h 69 % 0 mm
22:35 15.9 °C 10.2 °C 1009.4 hPa South 15 km/h 20.4 km/h 69 % 0 mm
22:40 15.7 °C 10.3 °C 1009.7 hPa South 15.9 km/h 24.1 km/h 70 % 0 mm
22:45 15.6 °C 10.2 °C 1009.7 hPa South 17.5 km/h 25.9 km/h 70 % 0 mm
22:50 15.5 °C 10.1 °C 1009.7 hPa South 13.7 km/h 18.5 km/h 70 % 0 mm
22:55 15.4 °C 10.2 °C 1009.7 hPa South 12.7 km/h 17.7 km/h 71 % 0 mm
23:00 15.2 °C 10 °C 1009.7 hPa South 15 km/h 22.2 km/h 71 % 0 mm
23:05 15.1 °C 10.1 °C 1009.7 hPa South 11.9 km/h 16.7 km/h 72 % 0 mm
23:15 14.9 °C 10.1 °C 1009.7 hPa SSW 11.4 km/h 18.5 km/h 73 % 0 mm
23:25 14.7 °C 9.9 °C 1009.7 hPa South 10.6 km/h 16.7 km/h 73 % 0 mm
23:35 14.5 °C 9.9 °C 1009.4 hPa South 10.1 km/h 18.5 km/h 74 % 0 mm
23:50 14.2 °C 9.8 °C 1009.4 hPa South 8.4 km/h 14.8 km/h 75 % 0 mm
23:55 14.1 °C 9.9 °C 1009.4 hPa South 7.6 km/h 18.5 km/h 76 % 0 mm
Ararat Weather
Compliments of Weather Underground - 2.25 mb
Click here to send mail.


ABOUT

Live weather data from Ararat, Victoria, Australia, 3377
Data uploaded from Cumulus every 5 minutes to Weather Underground.
This site then downloads the raw data for formatting and display.
Metric and imperial data can be displayed. Graphs and historical data available.
Includes Sun and Moon times and rain image live from BOM.

Check out Ararat Weather on Facebook, Twitter and Google +

Help support ongoing costs by checking out the ads





Follow @AraratWeather